Time;durP1;ratioP1;P1;durP2;ratioP2;P2;SDS_P1;SDS_P2;PMS_P1;PMS_P2;Temp;Humidity;BMP_temperature;BMP_pressure;BME280_temperature;BME280_humidity;BME280_pressure;Samples;Min_cycle;Max_cycle;Signal;HPM_P1;HPM_P2
2023/06/08 00:01:44;;;;;;;8.52;7.63;;;19.20;99.90;;;;;;5038084;28;20593;-68
2023/06/08 00:04:12;;;;;;;8.88;7.97;;;19.20;99.90;;;;;;5038685;28;20187;-67
2023/06/08 00:06:43;;;;;;;8.35;7.43;;;19.10;99.90;;;;;;5025664;28;20173;-67
2023/06/08 00:09:09;;;;;;;9.20;8.30;;;19.10;99.90;;;;;;5020790;28;20201;-68
2023/06/08 00:11:35;;;;;;;8.48;7.63;;;19.00;99.90;;;;;;5035478;28;20174;-67
2023/06/08 00:14:01;;;;;;;7.95;7.15;;;19.00;99.90;;;;;;5035610;28;20174;-68
2023/06/08 00:16:29;;;;;;;10.18;8.15;;;19.00;99.90;;;;;;5051724;28;20201;-68
2023/06/08 00:18:56;;;;;;;10.23;8.27;;;18.90;99.90;;;;;;5054254;28;20181;-68
2023/06/08 00:21:33;;;;;;;8.85;7.97;;;18.90;99.90;;;;;;5018916;28;20216;-68
2023/06/08 00:23:59;;;;;;;9.25;8.18;;;18.90;99.90;;;;;;5030012;28;20173;-67
2023/06/08 00:26:26;;;;;;;9.30;8.10;;;18.80;99.90;;;;;;5038294;28;20180;-67
2023/06/08 00:28:52;;;;;;;8.88;7.95;;;18.80;99.90;;;;;;5037596;28;20173;-68
2023/06/08 00:31:19;;;;;;;8.90;8.00;;;18.80;99.90;;;;;;5034356;28;20338;-68
2023/06/08 00:33:47;;;;;;;8.75;7.88;;;18.70;99.90;;;;;;5045597;28;20208;-68
2023/06/08 00:36:13;;;;;;;9.10;8.20;;;18.70;99.90;;;;;;5049664;28;20227;-67
2023/06/08 00:38:42;;;;;;;8.80;7.90;;;18.70;99.90;;;;;;5037444;28;20169;-68
2023/06/08 00:41:10;;;;;;;9.27;8.18;;;18.70;99.90;;;;;;5031026;28;20174;-67
2023/06/08 00:43:36;;;;;;;9.15;8.25;;;18.70;99.90;;;;;;5028488;28;20173;-68
2023/06/08 00:46:07;;;;;;;8.73;7.88;;;18.60;99.90;;;;;;5037533;28;20287;-68
2023/06/08 00:48:35;;;;;;;10.07;9.07;;;18.60;99.90;;;;;;5035955;28;20260;-68
2023/06/08 00:51:04;;;;;;;9.95;8.85;;;18.60;99.90;;;;;;5033709;28;20193;-68
2023/06/08 00:53:32;;;;;;;10.25;9.15;;;18.50;99.90;;;;;;5044804;28;20185;-68
2023/06/08 00:56:01;;;;;;;10.77;9.68;;;18.50;99.90;;;;;;5034346;28;20174;-67
2023/06/08 00:58:29;;;;;;;11.73;9.65;;;18.50;99.90;;;;;;5047095;28;20219;-68
2023/06/08 01:00:59;;;;;;;9.98;8.40;;;18.50;99.90;;;;;;5036768;28;20184;-67
2023/06/08 01:03:35;;;;;;;10.55;8.63;;;18.50;99.90;;;;;;5037024;28;20247;-67
2023/06/08 01:06:08;;;;;;;9.45;8.15;;;18.40;99.90;;;;;;5064838;28;20238;-67
2023/06/08 01:08:52;;;;;;;8.60;7.78;;;18.40;99.90;;;;;;5053383;28;20262;-66
2023/06/08 01:11:33;;;;;;;9.02;7.75;;;18.40;99.90;;;;;;5053301;28;20176;-68
2023/06/08 01:14:14;;;;;;;9.23;8.23;;;18.40;99.90;;;;;;5040194;28;20237;-67
2023/06/08 01:16:49;;;;;;;9.20;8.25;;;18.30;99.90;;;;;;5017768;28;20166;-67
2023/06/08 01:19:28;;;;;;;8.80;7.50;;;18.30;99.90;;;;;;5036589;28;20177;-68
2023/06/08 01:22:03;;;;;;;8.15;7.22;;;18.30;99.90;;;;;;5052957;28;20205;-68
2023/06/08 01:24:35;;;;;;;9.13;8.23;;;18.30;99.90;;;;;;5036951;28;20212;-67
2023/06/08 01:27:07;;;;;;;9.18;8.07;;;18.30;99.90;;;;;;5053556;28;20232;-68
2023/06/08 01:29:36;;;;;;;9.18;8.18;;;18.30;99.90;;;;;;5057952;28;20180;-68
2023/06/08 01:32:04;;;;;;;12.07;8.20;;;18.20;99.90;;;;;;5053718;28;20410;-68
2023/06/08 01:34:30;;;;;;;8.43;7.63;;;18.20;99.90;;;;;;5041709;28;20192;-68
2023/06/08 01:37:18;;;;;;;8.20;7.40;;;18.20;99.90;;;;;;5047977;28;20260;-68
2023/06/08 01:40:02;;;;;;;7.80;7.07;;;18.20;99.90;;;;;;5037380;28;20177;-68
2023/06/08 01:42:30;;;;;;;8.65;7.80;;;18.10;99.90;;;;;;5037591;28;20205;-69
2023/06/08 01:45:17;;;;;;;8.20;7.40;;;18.10;99.90;;;;;;5042388;28;20214;-68
2023/06/08 01:47:58;;;;;;;9.55;7.68;;;18.10;99.90;;;;;;5036514;28;20187;-68
2023/06/08 01:50:25;;;;;;;9.10;7.15;;;18.10;99.90;;;;;;5050676;28;20213;-68
2023/06/08 01:52:51;;;;;;;8.57;7.43;;;18.00;99.90;;;;;;5042904;28;20181;-67
2023/06/08 01:55:19;;;;;;;9.25;7.85;;;18.00;99.90;;;;;;5048432;28;20220;-68
2023/06/08 01:57:45;;;;;;;8.85;7.95;;;18.00;99.90;;;;;;5039658;28;20214;-68
2023/06/08 02:00:12;;;;;;;9.30;8.38;;;18.00;99.90;;;;;;5040868;28;20177;-67
2023/06/08 02:02:38;;;;;;;9.77;8.75;;;17.90;99.90;;;;;;5038905;28;20208;-67
2023/06/08 02:05:09;;;;;;;9.55;8.55;;;17.80;99.90;;;;;;5020645;28;20335;-68
2023/06/08 02:07:36;;;;;;;10.15;8.75;;;17.80;99.90;;;;;;5022042;28;20205;-68
2023/06/08 02:10:05;;;;;;;10.95;8.98;;;17.80;99.90;;;;;;5039895;28;20215;-68
2023/06/08 02:12:31;;;;;;;9.63;8.57;;;17.70;99.90;;;;;;5056625;28;20315;-68
2023/06/08 02:14:57;;;;;;;10.05;8.63;;;17.70;99.90;;;;;;5040329;28;20260;-68
2023/06/08 02:17:27;;;;;;;9.60;8.57;;;17.60;99.90;;;;;;5057889;28;20166;-68
2023/06/08 02:19:56;;;;;;;9.98;8.95;;;17.60;99.90;;;;;;5039860;28;20201;-68
2023/06/08 02:22:27;;;;;;;11.27;9.05;;;17.60;99.90;;;;;;5056614;28;20208;-68
2023/06/08 02:24:55;;;;;;;9.73;8.57;;;17.60;99.90;;;;;;5036212;28;20238;-68
2023/06/08 02:27:23;;;;;;;9.57;8.57;;;17.50;99.90;;;;;;5036987;28;20174;-67
2023/06/08 02:29:53;;;;;;;9.30;8.30;;;17.50;99.90;;;;;;5020476;28;20170;-67
2023/06/08 02:32:22;;;;;;;9.63;8.23;;;17.50;99.90;;;;;;5036859;28;20198;-68
2023/06/08 02:34:55;;;;;;;8.20;7.40;;;17.40;99.90;;;;;;5036318;28;20201;-68
2023/06/08 02:37:22;;;;;;;8.57;7.72;;;17.40;99.90;;;;;;5036681;28;20182;-67
2023/06/08 02:39:48;;;;;;;9.80;8.15;;;17.40;99.90;;;;;;5020188;28;20182;-66
2023/06/08 02:42:14;;;;;;;8.57;7.65;;;17.40;99.90;;;;;;5036565;28;20263;-67
2023/06/08 02:44:42;;;;;;;8.35;7.53;;;17.40;99.90;;;;;;5053606;28;20223;-67
2023/06/08 02:47:12;;;;;;;8.20;7.30;;;17.30;99.90;;;;;;5039699;28;20249;-66
2023/06/08 02:49:40;;;;;;;9.18;7.70;;;17.30;99.90;;;;;;5039439;28;20204;-67
2023/06/08 02:52:06;;;;;;;8.88;7.97;;;17.30;99.90;;;;;;5039452;28;20178;-67
2023/06/08 02:54:36;;;;;;;9.02;7.38;;;17.30;99.90;;;;;;5039480;28;20188;-68
2023/06/08 02:57:03;;;;;;;8.32;7.45;;;17.30;99.90;;;;;;5039258;28;20201;-66
2023/06/08 02:59:31;;;;;;;8.35;7.45;;;17.30;99.90;;;;;;5039671;28;20173;-67
2023/06/08 03:01:57;;;;;;;10.90;8.32;;;17.30;99.90;;;;;;5039403;28;20197;-67
2023/06/08 03:04:27;;;;;;;8.98;8.02;;;17.30;99.90;;;;;;5038598;28;20283;-68
2023/06/08 03:06:55;;;;;;;8.68;7.82;;;17.30;99.90;;;;;;5039479;28;20188;-68
2023/06/08 03:09:31;;;;;;;8.85;7.95;;;17.30;99.90;;;;;;5039281;28;20173;-68
2023/06/08 03:11:57;;;;;;;9.27;7.78;;;17.30;99.90;;;;;;5039323;28;20173;-67
2023/06/08 03:14:28;;;;;;;8.77;7.90;;;17.30;99.90;;;;;;5039099;28;20181;-68
2023/06/08 03:17:05;;;;;;;9.15;8.20;;;17.30;99.90;;;;;;5037316;28;20197;-67
2023/06/08 03:19:31;;;;;;;8.15;7.35;;;17.30;99.90;;;;;;5039171;28;20177;-68
2023/06/08 03:22:04;;;;;;;8.57;7.68;;;17.30;99.90;;;;;;5039224;28;20204;-67
2023/06/08 03:24:32;;;;;;;9.20;8.30;;;17.30;99.90;;;;;;5039237;28;20193;-66
2023/06/08 03:26:59;;;;;;;8.85;7.95;;;17.30;99.90;;;;;;5039135;28;20169;-67
2023/06/08 03:29:28;;;;;;;9.52;8.57;;;17.30;99.90;;;;;;5039073;28;20165;-68
2023/06/08 03:31:57;;;;;;;10.10;8.98;;;17.20;99.90;;;;;;5020224;28;20241;-68
2023/06/08 03:34:29;;;;;;;9.88;8.82;;;17.20;99.90;;;;;;5019150;28;20201;-67
2023/06/08 03:36:57;;;;;;;9.15;8.25;;;17.20;99.90;;;;;;5018933;28;20181;-68
2023/06/08 03:39:25;;;;;;;9.35;8.25;;;17.20;99.90;;;;;;5026956;28;20190;-67
2023/06/08 03:41:51;;;;;;;9.32;8.43;;;17.20;99.90;;;;;;5038764;28;20197;-68
2023/06/08 03:44:19;;;;;;;10.45;7.93;;;17.20;99.90;;;;;;5035381;28;20181;-68
2023/06/08 03:46:48;;;;;;;9.00;8.10;;;17.20;99.90;;;;;;5035530;28;20240;-68
2023/06/08 03:49:14;;;;;;;8.52;7.70;;;17.20;99.90;;;;;;5035471;28;20174;-68
2023/06/08 03:51:40;;;;;;;8.95;8.05;;;17.20;99.90;;;;;;5035262;28;20263;-67
2023/06/08 03:54:08;;;;;;;8.95;8.05;;;17.20;99.90;;;;;;5035036;28;20244;-67
2023/06/08 03:56:33;;;;;;;9.38;8.45;;;17.10;99.90;;;;;;5042863;28;20268;-67
2023/06/08 03:59:02;;;;;;;9.73;8.73;;;17.10;99.90;;;;;;5038412;28;20212;-66
2023/06/08 04:01:28;;;;;;;9.20;8.23;;;17.20;99.90;;;;;;5038277;28;20234;-67
2023/06/08 04:03:54;;;;;;;10.23;8.43;;;17.10;99.90;;;;;;5038398;28;20326;-68
2023/06/08 04:06:20;;;;;;;9.32;8.35;;;17.10;99.90;;;;;;5038370;28;20176;-68
2023/06/08 04:08:46;;;;;;;9.35;8.40;;;17.10;99.90;;;;;;5038189;28;20195;-68
2023/06/08 04:11:14;;;;;;;9.85;8.88;;;17.20;99.90;;;;;;5038275;28;20193;-67
2023/06/08 04:13:42;;;;;;;9.65;8.20;;;17.20;99.90;;;;;;5035859;28;20185;-67
2023/06/08 04:16:11;;;;;;;10.00;8.90;;;17.20;99.90;;;;;;5018323;28;20228;-67
2023/06/08 04:18:43;;;;;;;9.23;8.32;;;17.20;99.90;;;;;;5018185;28;20190;-68
2023/06/08 04:21:09;;;;;;;10.40;9.13;;;17.20;99.90;;;;;;5018149;28;20182;-68
2023/06/08 04:23:37;;;;;;;10.93;8.85;;;17.20;99.90;;;;;;5018224;28;20174;-67
2023/06/08 04:26:08;;;;;;;10.15;9.07;;;17.20;99.90;;;;;;5018804;28;20218;-67
2023/06/08 04:28:34;;;;;;;9.80;8.63;;;17.20;99.90;;;;;;5018018;28;20215;-67
2023/06/08 04:31:01;;;;;;;10.48;8.80;;;17.20;99.90;;;;;;5031340;28;20249;-67
2023/06/08 04:33:32;;;;;;;9.35;8.40;;;17.30;99.90;;;;;;5018429;28;20178;-68
2023/06/08 04:35:58;;;;;;;10.13;9.02;;;17.30;99.90;;;;;;5018383;28;20193;-68
2023/06/08 04:38:25;;;;;;;10.75;9.27;;;17.30;99.90;;;;;;5018168;28;20263;-68
2023/06/08 04:40:55;;;;;;;10.15;9.13;;;17.30;99.90;;;;;;5018220;28;20185;-67
2023/06/08 04:43:21;;;;;;;11.80;9.68;;;17.30;99.90;;;;;;5017871;28;20221;-67
2023/06/08 04:45:57;;;;;;;10.52;9.43;;;17.30;99.90;;;;;;5024436;28;20170;-67
2023/06/08 04:48:28;;;;;;;10.00;8.73;;;17.30;99.90;;;;;;5034327;28;20166;-67
2023/06/08 04:50:59;;;;;;;10.52;9.43;;;17.30;99.90;;;;;;5034016;28;20174;-67
2023/06/08 04:53:25;;;;;;;10.50;9.40;;;17.30;99.90;;;;;;5034092;28;20174;-67
2023/06/08 04:56:02;;;;;;;10.63;9.52;;;17.30;99.90;;;;;;5021641;28;20201;-67
2023/06/08 04:58:31;;;;;;;10.40;9.27;;;17.40;99.90;;;;;;5017786;28;20185;-68
2023/06/08 05:00:58;;;;;;;10.65;9.55;;;17.40;99.90;;;;;;5019301;28;20197;-67
2023/06/08 05:03:28;;;;;;;10.32;9.32;;;17.40;99.90;;;;;;5037385;28;20199;-68
2023/06/08 05:05:55;;;;;;;10.27;9.05;;;17.50;99.90;;;;;;5037293;28;20161;-67
2023/06/08 05:08:20;;;;;;;10.80;9.48;;;17.50;99.90;;;;;;5037364;28;20174;-68
2023/06/08 05:10:46;;;;;;;10.70;9.50;;;17.50;99.90;;;;;;5037343;28;20228;-68
2023/06/08 05:13:11;;;;;;;10.50;9.40;;;17.60;99.90;;;;;;5053771;28;20179;-67
2023/06/08 05:15:40;;;;;;;10.35;9.30;;;17.60;99.90;;;;;;5054066;28;20238;-68
2023/06/08 05:18:06;;;;;;;10.77;9.70;;;17.70;99.90;;;;;;5053063;28;20201;-69
2023/06/08 05:20:31;;;;;;;11.13;9.93;;;17.80;99.90;;;;;;5037259;28;20231;-67
2023/06/08 05:22:58;;;;;;;11.50;9.73;;;17.80;99.90;;;;;;5037077;28;20201;-67
2023/06/08 05:25:24;;;;;;;11.35;9.93;;;17.90;99.90;;;;;;5025792;28;20260;-67
2023/06/08 05:27:49;;;;;;;13.77;10.80;;;17.90;99.90;;;;;;5028246;28;20208;-68
2023/06/08 05:30:15;;;;;;;10.90;9.68;;;18.00;99.90;;;;;;5022396;28;20210;-68
2023/06/08 05:32:43;;;;;;;10.25;9.23;;;18.00;99.90;;;;;;5051502;28;20188;-67
2023/06/08 05:35:11;;;;;;;11.07;9.98;;;18.10;99.90;;;;;;5048108;28;20228;-67
2023/06/08 05:37:37;;;;;;;11.05;9.88;;;18.10;99.90;;;;;;5036952;28;20173;-68
2023/06/08 05:40:04;;;;;;;10.43;9.40;;;18.20;99.90;;;;;;5034740;28;20177;-67
2023/06/08 05:42:32;;;;;;;10.25;9.25;;;18.20;99.90;;;;;;5020764;28;20204;-68
2023/06/08 05:44:58;;;;;;;10.52;9.45;;;18.30;99.90;;;;;;5036679;28;20174;-67
2023/06/08 05:47:23;;;;;;;10.57;9.45;;;18.40;99.90;;;;;;5036176;28;20283;-68
2023/06/08 05:49:49;;;;;;;10.52;9.52;;;18.40;99.90;;;;;;5031819;28;20233;-67
2023/06/08 05:52:16;;;;;;;10.82;9.73;;;18.50;99.90;;;;;;5019027;28;20204;-68
2023/06/08 05:54:42;;;;;;;11.52;10.32;;;18.50;99.90;;;;;;5053412;28;20201;-68
2023/06/08 05:57:10;;;;;;;10.73;9.60;;;18.50;99.90;;;;;;5036782;28;20199;-68
2023/06/08 05:59:38;;;;;;;12.00;10.13;;;18.60;99.90;;;;;;5048731;28;20259;-68
2023/06/08 06:02:04;;;;;;;10.40;9.40;;;18.70;99.90;;;;;;5036928;28;20194;-68
2023/06/08 06:04:30;;;;;;;10.60;9.18;;;18.70;99.90;;;;;;5033361;28;20197;-68
2023/06/08 06:06:58;;;;;;;10.65;9.35;;;18.80;99.90;;;;;;5036813;28;20174;-68
2023/06/08 06:09:25;;;;;;;11.32;9.68;;;18.90;99.90;;;;;;5046471;28;20200;-67
2023/06/08 06:11:51;;;;;;;9.70;8.70;;;18.90;99.90;;;;;;5040867;28;20202;-68
2023/06/08 06:14:16;;;;;;;11.38;10.20;;;18.90;99.90;;;;;;5030608;28;20188;-68
2023/06/08 06:16:43;;;;;;;13.77;11.43;;;19.00;99.90;;;;;;5031945;28;20185;-68
2023/06/08 06:19:11;;;;;;;10.50;9.43;;;19.10;99.90;;;;;;5036958;28;20212;-66
2023/06/08 06:21:36;;;;;;;9.95;8.95;;;19.20;99.90;;;;;;5045560;28;20335;-65
2023/06/08 06:24:02;;;;;;;9.52;8.23;;;19.20;99.90;;;;;;5034100;28;20269;-67
2023/06/08 06:26:28;;;;;;;8.05;7.25;;;19.30;99.90;;;;;;5034217;28;20170;-66
2023/06/08 06:28:56;;;;;;;7.75;6.95;;;19.40;99.90;;;;;;5053419;28;20184;-67
2023/06/08 06:31:24;;;;;;;7.25;6.55;;;19.40;99.90;;;;;;5034942;28;20205;-66
2023/06/08 06:33:51;;;;;;;7.80;6.82;;;19.50;99.90;;;;;;5022120;28;20174;-67
2023/06/08 06:36:16;;;;;;;8.05;7.20;;;19.50;99.90;;;;;;5042807;28;20174;-68
2023/06/08 06:38:42;;;;;;;6.70;6.00;;;19.60;99.90;;;;;;5036475;28;20270;-68
2023/06/08 06:41:08;;;;;;;6.78;6.10;;;19.60;99.90;;;;;;5039674;28;20180;-67
2023/06/08 06:43:33;;;;;;;7.22;6.53;;;19.70;99.90;;;;;;5045585;28;20206;-67
2023/06/08 06:45:59;;;;;;;7.13;6.43;;;19.70;99.90;;;;;;5025564;28;20188;-68
2023/06/08 06:48:27;;;;;;;6.63;6.03;;;19.80;99.90;;;;;;5040026;28;20205;-67
2023/06/08 06:50:55;;;;;;;6.30;5.70;;;19.90;99.90;;;;;;5039863;28;20253;-68
2023/06/08 06:53:23;;;;;;;5.90;5.30;;;20.00;99.90;;;;;;5036625;28;20213;-68
2023/06/08 06:55:49;;;;;;;5.72;5.13;;;20.10;99.90;;;;;;5042236;28;20193;-68
2023/06/08 06:58:18;;;;;;;6.25;5.45;;;20.10;99.90;;;;;;5033797;28;20178;-67
2023/06/08 07:00:44;;;;;;;5.63;5.13;;;20.20;99.90;;;;;;5047641;28;20195;-68
2023/06/08 07:03:11;;;;;;;6.03;5.43;;;20.30;99.90;;;;;;5055846;28;20205;-67
2023/06/08 07:05:37;;;;;;;5.93;4.90;;;20.40;99.90;;;;;;5040066;28;20261;-68
2023/06/08 07:08:03;;;;;;;5.63;4.82;;;20.40;99.90;;;;;;5039877;28;20260;-67
2023/06/08 07:10:29;;;;;;;4.90;4.40;;;20.50;99.90;;;;;;5056379;28;20197;-68
2023/06/08 07:12:58;;;;;;;5.28;4.78;;;20.50;99.90;;;;;;5035486;28;20174;-68
2023/06/08 07:15:23;;;;;;;5.75;4.40;;;20.60;99.90;;;;;;5052271;28;20296;-67
2023/06/08 07:17:51;;;;;;;4.90;4.40;;;20.60;99.90;;;;;;5056440;28;20302;-71
2023/06/08 07:20:17;;;;;;;4.65;4.25;;;20.70;99.90;;;;;;5054816;28;20174;-67
2023/06/08 07:22:45;;;;;;;4.72;4.28;;;20.70;99.90;;;;;;5034598;28;20256;-67
2023/06/08 07:25:11;;;;;;;5.53;4.22;;;20.80;99.90;;;;;;5027359;28;20396;-68
2023/06/08 07:27:38;;;;;;;4.93;4.25;;;20.80;99.90;;;;;;5036302;28;20197;-67
2023/06/08 07:30:05;;;;;;;5.30;4.80;;;20.90;99.90;;;;;;5057283;28;20173;-72
2023/06/08 07:32:32;;;;;;;5.18;4.68;;;20.90;99.90;;;;;;5032788;28;20186;-72
2023/06/08 07:35:03;;;;;;;5.50;4.95;;;21.00;99.90;;;;;;5043412;28;20200;-71
2023/06/08 07:37:36;;;;;;;5.18;4.68;;;21.00;99.90;;;;;;5039592;28;20173;-71
2023/06/08 07:40:05;;;;;;;4.53;4.13;;;21.10;99.90;;;;;;5039041;28;20291;-72
2023/06/08 07:42:31;;;;;;;5.70;4.30;;;21.10;99.90;;;;;;5038947;28;20201;-71
2023/06/08 07:44:58;;;;;;;4.85;4.45;;;21.20;99.90;;;;;;5055766;28;20309;-71
2023/06/08 07:47:24;;;;;;;4.53;4.13;;;21.20;99.90;;;;;;5055187;28;20417;-72
2023/06/08 07:49:50;;;;;;;4.93;4.38;;;21.30;99.90;;;;;;5036253;28;20239;-73
2023/06/08 07:52:15;;;;;;;5.05;4.25;;;21.30;99.90;;;;;;5053181;28;20275;-73
2023/06/08 07:54:41;;;;;;;4.60;4.13;;;21.40;99.90;;;;;;5055593;28;20185;-72
2023/06/08 07:57:09;;;;;;;5.15;4.40;;;21.40;99.90;;;;;;5051859;28;20202;-71
2023/06/08 07:59:34;;;;;;;5.18;4.20;;;21.50;99.90;;;;;;5053069;28;20184;-69
2023/06/08 08:02:01;;;;;;;6.75;4.50;;;21.50;99.90;;;;;;5038148;28;20288;-72
2023/06/08 08:04:29;;;;;;;5.60;4.05;;;21.60;99.90;;;;;;5030967;28;20178;-71
2023/06/08 08:06:55;;;;;;;4.63;3.95;;;21.60;99.90;;;;;;5035272;28;20177;-71
2023/06/08 08:09:21;;;;;;;4.82;3.78;;;21.70;99.90;;;;;;5032697;28;20189;-71
2023/06/08 08:11:46;;;;;;;4.78;3.83;;;21.80;99.90;;;;;;5038733;28;20166;-71
2023/06/08 08:14:14;;;;;;;4.32;3.75;;;21.80;99.90;;;;;;5028182;28;20189;-71
2023/06/08 08:16:40;;;;;;;4.32;3.92;;;21.90;99.90;;;;;;5044928;28;20261;-70
2023/06/08 08:19:06;;;;;;;4.03;3.63;;;22.00;99.90;;;;;;5031488;28;20860;-70
2023/06/08 08:21:34;;;;;;;5.60;3.50;;;22.00;99.90;;;;;;5051730;28;20173;-71
2023/06/08 08:24:03;;;;;;;4.35;3.72;;;22.10;99.90;;;;;;5035869;28;20213;-71
2023/06/08 08:26:31;;;;;;;4.15;3.80;;;22.20;99.90;;;;;;5035216;28;20196;-71
2023/06/08 08:28:57;;;;;;;5.20;4.00;;;22.30;99.90;;;;;;5037203;28;20212;-71
2023/06/08 08:31:25;;;;;;;3.97;3.55;;;22.40;99.90;;;;;;5055004;28;20196;-72
2023/06/08 08:33:55;;;;;;;4.25;3.85;;;22.50;99.90;;;;;;5034789;28;20170;-70
2023/06/08 08:36:21;;;;;;;4.00;3.60;;;22.50;99.90;;;;;;5018865;28;20201;-71
2023/06/08 08:38:49;;;;;;;3.80;3.50;;;22.60;99.90;;;;;;5029070;28;20173;-71
2023/06/08 08:41:20;;;;;;;3.95;3.65;;;22.70;99.90;;;;;;5036515;28;20174;-73
2023/06/08 08:43:55;;;;;;;3.78;3.40;;;22.80;99.90;;;;;;5044972;28;20177;-71
2023/06/08 08:46:23;;;;;;;3.95;3.60;;;22.90;99.90;;;;;;5045333;28;20177;-71
2023/06/08 08:48:50;;;;;;;4.18;3.75;;;23.00;99.90;;;;;;5028250;28;20198;-69
2023/06/08 08:51:21;;;;;;;4.53;3.60;;;23.10;99.90;;;;;;5042237;28;20200;-70
2023/06/08 08:53:51;;;;;;;3.97;3.58;;;23.10;99.90;;;;;;5053774;28;20182;-70
2023/06/08 08:56:28;;;;;;;4.05;3.30;;;23.20;99.90;;;;;;5040868;28;20194;-71
2023/06/08 08:58:57;;;;;;;4.30;3.90;;;23.30;99.90;;;;;;5034548;28;20181;-71
2023/06/08 09:01:27;;;;;;;5.13;3.70;;;23.40;99.90;;;;;;5049898;28;20197;-72
2023/06/08 09:03:53;;;;;;;3.50;3.20;;;23.50;99.90;;;;;;5037596;28;20267;-72
2023/06/08 09:06:22;;;;;;;4.15;3.40;;;23.50;99.90;;;;;;5038387;28;20177;-70
2023/06/08 09:08:48;;;;;;;4.65;3.60;;;23.60;99.90;;;;;;5037200;28;20169;-71
2023/06/08 09:11:13;;;;;;;4.05;3.65;;;23.70;99.90;;;;;;5036956;28;20184;-70
2023/06/08 09:13:39;;;;;;;3.60;3.30;;;23.70;99.90;;;;;;5037302;28;20264;-72
2023/06/08 09:16:24;;;;;;;3.90;3.55;;;23.80;99.90;;;;;;5032760;28;20265;-72
2023/06/08 09:19:06;;;;;;;3.60;3.30;;;23.90;99.90;;;;;;5024988;28;20264;-72
2023/06/08 09:21:34;;;;;;;3.45;3.15;;;24.00;99.90;;;;;;5034069;28;20173;-71
2023/06/08 09:24:22;;;;;;;3.90;3.50;;;24.10;99.90;;;;;;5037363;28;20170;-70
2023/06/08 09:26:56;;;;;;;4.47;3.40;;;24.20;99.90;;;;;;5034672;28;20351;-71
2023/06/08 09:29:38;;;;;;;3.85;3.45;;;24.30;99.90;;;;;;5037205;28;20170;-71
2023/06/08 09:32:07;;;;;;;3.78;3.47;;;24.30;99.90;;;;;;5033990;28;20224;-71
2023/06/08 09:34:51;;;;;;;4.18;3.78;;;24.40;99.90;;;;;;5023639;28;20181;-68
2023/06/08 09:37:18;;;;;;;3.88;3.58;;;24.50;99.90;;;;;;5027921;28;20170;-72
2023/06/08 09:39:47;;;;;;;3.83;3.53;;;24.60;99.90;;;;;;5042737;28;20224;-69
2023/06/08 09:42:16;;;;;;;3.72;3.42;;;24.70;99.90;;;;;;5036956;28;20201;-71
2023/06/08 09:44:41;;;;;;;3.50;3.20;;;24.70;99.90;;;;;;5033345;28;20206;-72
2023/06/08 09:47:33;;;;;;;4.03;3.63;;;24.90;99.90;;;;;;5034416;28;20170;-72
2023/06/08 09:50:02;;;;;;;5.18;3.67;;;25.00;99.90;;;;;;5045772;28;20185;-72
2023/06/08 09:52:33;;;;;;;3.83;3.53;;;25.10;99.90;;;;;;5027803;28;20196;-71
2023/06/08 09:54:59;;;;;;;3.60;3.30;;;25.20;99.90;;;;;;5053823;28;20185;-70
2023/06/08 09:57:28;;;;;;;3.88;3.58;;;25.30;99.90;;;;;;5037201;28;20315;-71
2023/06/08 10:00:14;;;;;;;3.78;3.47;;;25.40;99.90;;;;;;5029962;28;20232;-71
2023/06/08 10:03:02;;;;;;;3.45;3.15;;;25.50;99.90;;;;;;5043629;28;20346;-70
2023/06/08 10:05:30;;;;;;;4.40;3.70;;;25.50;99.90;;;;;;5048415;28;20195;-70
2023/06/08 10:08:02;;;;;;;3.80;3.47;;;25.60;99.90;;;;;;5034071;28;20170;-71
2023/06/08 10:10:41;;;;;;;4.88;3.55;;;25.70;99.90;;;;;;5052833;28;20199;-71
2023/06/08 10:13:09;;;;;;;4.03;3.53;;;25.80;99.90;;;;;;5036906;28;20299;-71
2023/06/08 10:15:38;;;;;;;3.55;3.25;;;25.80;99.90;;;;;;5040645;28;20188;-71
2023/06/08 10:18:07;;;;;;;3.60;3.30;;;25.90;99.90;;;;;;5038989;28;20182;-71
2023/06/08 10:20:34;;;;;;;4.07;3.50;;;26.10;99.90;;;;;;5046551;28;20245;-71
2023/06/08 10:23:01;;;;;;;4.10;3.70;;;26.20;99.90;;;;;;5056624;28;20224;-71
2023/06/08 10:25:28;;;;;;;4.35;3.78;;;26.30;99.90;;;;;;5056812;28;20176;-71
2023/06/08 10:28:01;;;;;;;4.55;3.72;;;26.40;99.90;;;;;;5056654;28;20201;-70
2023/06/08 10:30:30;;;;;;;7.43;3.35;;;26.60;99.90;;;;;;5053098;28;20442;-70
2023/06/08 10:33:08;;;;;;;4.95;4.18;;;26.60;99.90;;;;;;5037987;28;20181;-71
2023/06/08 10:35:35;;;;;;;10.93;8.48;;;26.80;99.90;;;;;;5036966;28;20276;-71
2023/06/08 10:38:08;;;;;;;16.80;13.05;;;26.90;99.90;;;;;;5025721;28;20184;-72
2023/06/08 10:41:01;;;;;;;15.02;10.70;;;27.10;99.90;;;;;;5040385;28;20346;-71
2023/06/08 10:43:27;;;;;;;13.43;11.55;;;27.30;99.90;;;;;;5045917;28;20202;-71
2023/06/08 10:45:58;;;;;;;8.38;6.82;;;27.50;99.90;;;;;;5029716;28;20233;-71
2023/06/08 10:48:36;;;;;;;11.23;8.88;;;27.70;99.90;;;;;;5056537;28;20232;-71
2023/06/08 10:51:05;;;;;;;7.85;5.75;;;28.00;99.90;;;;;;5026544;28;20197;-72
2023/06/08 10:53:59;;;;;;;6.45;5.85;;;28.20;99.90;;;;;;5024665;28;20197;-72
2023/06/08 10:56:29;;;;;;;7.30;6.50;;;28.40;99.90;;;;;;5054870;28;20526;-72
2023/06/08 10:58:55;;;;;;;11.82;8.95;;;28.50;99.90;;;;;;5040157;28;20176;-73
2023/06/08 11:01:21;;;;;;;10.23;8.95;;;28.70;99.90;;;;;;5040197;28;20192;-72
2023/06/08 11:03:49;;;;;;;10.07;7.60;;;28.80;99.90;;;;;;5070545;28;20424;-69
2023/06/08 11:06:15;;;;;;;7.60;6.82;;;28.90;99.90;;;;;;5041413;28;20238;-71
2023/06/08 11:08:46;;;;;;;7.57;6.68;;;29.10;99.90;;;;;;5046887;28;20176;-72
2023/06/08 11:11:12;;;;;;;5.22;4.72;;;29.30;99.90;;;;;;5054660;28;20181;-71
2023/06/08 11:13:38;;;;;;;5.38;4.88;;;29.50;99.90;;;;;;5039333;28;20197;-71
2023/06/08 11:16:03;;;;;;;5.10;3.60;;;29.70;99.90;;;;;;5055661;28;20180;-71
2023/06/08 11:18:34;;;;;;;3.78;3.47;;;29.80;99.90;;;;;;5039245;28;20177;-69
2023/06/08 11:21:00;;;;;;;3.28;3.03;;;30.10;99.90;;;;;;5035590;28;20195;-70
2023/06/08 11:23:26;;;;;;;3.38;3.08;;;30.30;99.90;;;;;;5049494;28;20207;-72
2023/06/08 11:25:52;;;;;;;3.50;3.20;;;30.50;99.90;;;;;;5038851;28;20177;-71
2023/06/08 11:28:18;;;;;;;4.57;4.18;;;30.50;99.90;;;;;;5049059;28;20544;-72
2023/06/08 11:30:43;;;;;;;3.90;3.60;;;30.50;99.80;;;;;;5039190;28;20165;-72
2023/06/08 11:33:14;;;;;;;3.70;3.40;;;30.40;99.40;;;;;;5039240;28;20255;-71
2023/06/08 11:35:42;;;;;;;4.68;3.33;;;30.30;98.80;;;;;;5039511;28;20308;-71
2023/06/08 11:38:08;;;;;;;4.60;3.63;;;30.20;98.50;;;;;;5034069;28;20220;-70
2023/06/08 11:40:34;;;;;;;4.30;3.90;;;30.10;98.40;;;;;;5041887;28;20188;-72
2023/06/08 11:43:04;;;;;;;4.10;3.80;;;30.10;98.40;;;;;;5039018;28;20235;-69
2023/06/08 11:45:34;;;;;;;4.53;4.13;;;30.10;98.30;;;;;;5040921;28;20177;-72
2023/06/08 11:48:03;;;;;;;6.32;4.90;;;30.20;98.00;;;;;;5035848;28;20173;-72
2023/06/08 11:50:30;;;;;;;3.78;3.47;;;30.30;98.20;;;;;;5038291;28;20390;-72
2023/06/08 11:52:57;;;;;;;3.85;3.55;;;30.50;98.60;;;;;;5038583;28;20237;-72
2023/06/08 11:55:25;;;;;;;3.78;3.40;;;30.80;98.40;;;;;;5022909;28;20349;-70
2023/06/08 11:58:00;;;;;;;4.03;3.63;;;30.90;97.60;;;;;;5032030;28;20392;-68
2023/06/08 12:00:27;;;;;;;3.75;3.45;;;31.10;96.00;;;;;;5025542;28;20181;-67
2023/06/08 12:02:56;;;;;;;3.80;3.40;;;31.10;96.50;;;;;;5043121;28;20212;-67
2023/06/08 12:05:25;;;;;;;3.45;3.17;;;31.00;95.90;;;;;;5038542;28;20219;-68
2023/06/08 12:07:58;;;;;;;4.03;3.63;;;30.90;94.90;;;;;;5035322;28;20177;-68
2023/06/08 12:10:30;;;;;;;3.83;3.42;;;30.80;94.60;;;;;;5048623;28;20197;-68
2023/06/08 12:12:56;;;;;;;3.58;3.25;;;30.70;95.00;;;;;;5035300;28;20178;-67
2023/06/08 12:15:22;;;;;;;4.07;3.42;;;30.60;94.70;;;;;;5040127;28;20173;-67
2023/06/08 12:17:48;;;;;;;3.65;3.33;;;30.60;94.60;;;;;;5055210;28;20176;-68
2023/06/08 12:20:19;;;;;;;4.35;3.70;;;30.50;94.70;;;;;;5025058;28;20177;-68
2023/06/08 12:22:44;;;;;;;4.15;3.72;;;30.60;94.10;;;;;;5032863;28;20238;-67
2023/06/08 12:25:10;;;;;;;4.00;3.60;;;30.60;95.10;;;;;;5032524;28;20166;-67
2023/06/08 12:27:37;;;;;;;3.67;3.38;;;30.70;94.80;;;;;;5032012;28;20228;-67
2023/06/08 12:30:08;;;;;;;7.13;3.10;;;30.80;94.60;;;;;;5035724;28;20219;-68
2023/06/08 12:32:34;;;;;;;3.60;3.30;;;31.00;94.20;;;;;;5055096;28;20168;-66
2023/06/08 12:35:00;;;;;;;3.55;3.25;;;31.10;94.10;;;;;;5037698;28;20192;-68
2023/06/08 12:37:26;;;;;;;3.95;3.60;;;31.10;93.70;;;;;;5018133;28;20173;-67
2023/06/08 12:39:55;;;;;;;3.45;3.15;;;31.20;93.70;;;;;;5027443;28;20207;-69
2023/06/08 12:42:21;;;;;;;4.50;4.10;;;31.40;93.00;;;;;;5036830;28;20221;-67
2023/06/08 12:44:49;;;;;;;3.97;3.60;;;31.50;93.60;;;;;;5038314;28;20165;-67
2023/06/08 12:47:15;;;;;;;3.88;3.58;;;31.70;93.50;;;;;;5037751;28;20181;-67
2023/06/08 12:49:41;;;;;;;3.72;3.40;;;31.90;92.50;;;;;;5039647;28;20203;-66
2023/06/08 12:52:08;;;;;;;3.35;3.05;;;32.20;92.70;;;;;;5054381;28;20180;-65